Time;durP1;ratioP1;P1;durP2;ratioP2;P2;SDS_P1;SDS_P2;PMS_P1;PMS_P2;Temp;Humidity;BMP_temperature;BMP_pressure;BME280_temperature;BME280_humidity;BME280_pressure;Samples;Min_cycle;Max_cycle;Signal;HPM_P1;HPM_P2
2022/01/12 00:02:09;;;;;;;;;22.50;21.50;;;;;4.29;100.00;103472.47;5062498;28;11507;-71
2022/01/12 00:04:35;;;;;;;;;30.50;24.50;;;;;4.30;100.00;103464.34;5065496;28;11481;-70
2022/01/12 00:07:02;;;;;;;;;27.50;22.75;;;;;4.31;100.00;103459.84;5062162;28;11544;-71
2022/01/12 00:09:29;;;;;;;;;22.25;17.00;;;;;4.31;100.00;103455.34;5062544;28;11619;-71
2022/01/12 00:11:55;;;;;;;;;26.75;23.25;;;;;4.32;100.00;103446.34;5076643;28;11624;-71
2022/01/12 00:14:22;;;;;;;;;32.75;28.25;;;;;4.30;100.00;103450.94;5072623;28;11468;-70
2022/01/12 00:16:49;;;;;;;;;28.50;23.00;;;;;4.30;100.00;103445.56;5062572;28;11588;-70
2022/01/12 00:19:15;;;;;;;;;25.25;22.00;;;;;4.31;100.00;103444.59;5061068;28;11573;-70
2022/01/12 00:21:42;;;;;;;;;32.75;26.75;;;;;4.32;100.00;103440.97;5058963;28;11741;-71
2022/01/12 00:24:09;;;;;;;;;24.75;20.25;;;;;4.33;100.00;103448.06;5056870;28;11547;-71
2022/01/12 00:33:07;;;;;;;;;21.25;18.75;;;;;4.33;100.00;103455.25;5053861;28;11450;-70
2022/01/12 00:35:11;;;;;;;;;24.00;24.00;;;;;4.39;100.00;103449.53;5058355;28;11533;-70
2022/01/12 00:37:38;;;;;;;;;27.00;24.75;;;;;4.37;100.00;103454.13;5057345;28;12705;-69
2022/01/12 00:40:05;;;;;;;;;31.00;29.25;;;;;4.36;100.00;103455.06;5056817;28;11500;-70
2022/01/12 00:42:31;;;;;;;;;25.00;22.75;;;;;4.41;100.00;103450.31;5054667;28;11483;-70
2022/01/12 00:45:01;;;;;;;;;24.25;21.50;;;;;4.36;100.00;103451.53;5054753;28;11526;-70
2022/01/12 00:47:28;;;;;;;;;21.25;18.25;;;;;4.44;100.00;103457.31;5054070;28;11513;-71
2022/01/12 00:49:55;;;;;;;;;21.50;17.75;;;;;4.42;100.00;103457.41;5054790;28;11528;-71
2022/01/12 00:52:30;;;;;;;;;25.00;23.50;;;;;4.43;100.00;103450.22;5057003;28;11610;-71
2022/01/12 00:54:56;;;;;;;;;29.50;25.75;;;;;4.43;100.00;103466.31;5071606;28;11538;-71
2022/01/12 00:57:23;;;;;;;;;23.25;21.75;;;;;4.43;100.00;103459.16;5055723;28;11570;-70
2022/01/12 00:59:49;;;;;;;;;25.50;21.50;;;;;4.41;100.00;103450.31;5056116;28;11492;-69
2022/01/12 01:02:16;;;;;;;;;28.50;24.75;;;;;4.44;100.00;103443.91;5057552;28;11479;-70
2022/01/12 01:04:42;;;;;;;;;27.00;24.75;;;;;4.42;100.00;103435.97;5052972;28;11666;-71
2022/01/12 01:07:09;;;;;;;;;22.50;21.25;;;;;4.41;100.00;103436.91;5055526;28;11533;-70
2022/01/12 01:09:40;;;;;;;;;27.00;23.00;;;;;4.41;100.00;103436.03;5054764;28;11548;-71
2022/01/12 01:12:08;;;;;;;;;29.75;25.75;;;;;4.39;100.00;103441.50;5053296;28;11475;-71
2022/01/12 01:14:46;;;;;;;;;35.00;26.75;;;;;4.41;100.00;103436.91;5055958;28;11563;-70
2022/01/12 01:25:37;;;;;;;;;32.50;27.75;;;;;4.45;100.00;103432.22;5070848;28;11615;-70
2022/01/12 01:28:06;;;;;;;;;30.00;29.25;;;;;4.44;100.00;103434.06;5039267;28;11607;-70
2022/01/12 01:30:36;;;;;;;;;31.00;26.00;;;;;4.41;100.00;103444.09;5057046;28;11613;-70
2022/01/12 01:33:07;;;;;;;;;30.75;26.50;;;;;4.41;100.00;103449.44;5060960;28;11581;-70
2022/01/12 01:35:40;;;;;;;;;29.50;23.00;;;;;4.41;100.00;103470.91;5070361;28;11551;-70
2022/01/12 01:38:07;;;;;;;;;37.50;31.50;;;;;4.36;100.00;103481.91;5056203;28;11501;-70
2022/01/12 01:40:37;;;;;;;;;36.00;30.25;;;;;4.43;100.00;103501.19;5052396;28;12506;-70
2022/01/12 01:53:54;;;;;;;;;27.75;25.25;;;;;4.41;100.00;103541.50;5056344;28;11604;-70
2022/01/12 01:56:24;;;;;;;;;30.25;25.75;;;;;4.42;100.00;103548.59;5069559;28;11497;-70
2022/01/12 01:58:52;;;;;;;;;35.25;30.75;;;;;4.44;100.00;103556.56;5055704;28;11622;-70
2022/01/12 02:01:21;;;;;;;;;34.25;30.75;;;;;4.49;100.00;103571.50;5068447;28;12271;-70
2022/01/12 02:03:57;;;;;;;;;40.00;25.50;;;;;4.50;100.00;103567.84;5068981;28;11501;-70
2022/01/12 02:06:26;;;;;;;;;38.25;28.25;;;;;4.50;100.00;103564.31;5070095;28;11508;-70
2022/01/12 02:08:53;;;;;;;;;24.50;20.25;;;;;4.52;100.00;103565.09;5054955;28;11612;-70
2022/01/12 02:11:33;;;;;;;;;39.00;30.25;;;;;4.55;100.00;103572.97;5053326;28;11509;-70
2022/01/12 02:14:11;;;;;;;;;18.75;18.75;;;;;4.56;100.00;103564.84;5054594;28;11514;-70
2022/01/12 02:16:50;;;;;;;;;24.00;24.00;;;;;4.59;100.00;103570.03;5069322;28;12317;-70
2022/01/12 02:19:41;;;;;;;;;29.00;20.00;;;;;4.62;100.00;103577.03;5067761;28;11527;-70
2022/01/12 02:36:08;;;;;;;;;30.50;25.75;;;;;4.73;100.00;103577.34;5053417;28;11507;-71
2022/01/12 02:41:19;;;;;;;;;24.00;19.00;;;;;4.78;100.00;103580.63;5054545;28;11497;-70
2022/01/12 02:54:51;;;;;;;;;22.00;20.50;;;;;4.81;100.00;103577.78;5067737;28;11546;-70
2022/01/12 02:57:20;;;;;;;;;20.50;19.00;;;;;4.81;100.00;103574.22;5052609;28;11480;-70
2022/01/12 03:00:12;;;;;;;;;18.25;15.50;;;;;4.83;100.00;103570.50;5053902;28;11537;-71
2022/01/12 03:02:39;;;;;;;;;16.25;15.75;;;;;4.83;100.00;103569.66;5055280;28;12384;-70
2022/01/12 03:05:34;;;;;;;;;22.75;18.25;;;;;4.81;100.00;103567.06;5055269;28;11514;-70
2022/01/12 03:08:10;;;;;;;;;13.25;13.25;;;;;4.80;100.00;103568.00;5055263;28;12302;-70
2022/01/12 03:10:37;;;;;;;;;28.75;23.00;;;;;4.82;100.00;103567.91;5067977;28;11923;-70
2022/01/12 03:13:04;;;;;;;;;23.75;20.25;;;;;4.81;100.00;103576.91;5055186;28;11498;-70
2022/01/12 03:15:38;;;;;;;;;21.50;19.25;;;;;4.78;100.00;103579.78;5054902;28;11460;-70
2022/01/12 03:18:06;;;;;;;;;24.50;19.50;;;;;4.85;100.00;103597.25;5052144;28;11520;-70
2022/01/12 03:20:33;;;;;;;;;20.00;18.25;;;;;4.83;100.00;103596.47;5056407;28;11496;-70
2022/01/12 03:23:01;;;;;;;;;18.75;17.00;;;;;4.82;100.00;103595.63;5055527;28;11573;-70
2022/01/12 03:25:27;;;;;;;;;18.50;18.50;;;;;4.84;100.00;103600.91;5068919;28;11484;-70
2022/01/12 03:27:58;;;;;;;;;36.50;25.75;;;;;4.84;100.00;103599.09;5057260;28;11489;-70
2022/01/12 03:30:25;;;;;;;;;24.00;22.00;;;;;4.85;100.00;103590.06;5059064;28;11520;-70
2022/01/12 03:33:08;;;;;;;;;23.75;17.25;;;;;4.84;100.00;103609.81;5060110;28;11484;-69
2022/01/12 03:36:12;;;;;;;;;27.25;21.00;;;;;4.85;100.00;103616.06;5073260;28;11556;-71
2022/01/12 03:38:33;;;;;;;;;24.00;22.25;;;;;4.87;100.00;103611.47;5058047;28;11471;-70
2022/01/12 03:41:00;;;;;;;;;24.00;20.00;;;;;4.86;100.00;103618.66;5055698;28;12277;-69
2022/01/12 03:43:26;;;;;;;;;26.25;20.00;;;;;4.86;100.00;103617.78;5058387;28;12333;-69
2022/01/12 03:45:53;;;;;;;;;26.00;21.25;;;;;4.84;100.00;103615.19;5060565;28;11525;-69
2022/01/12 03:48:20;;;;;;;;;23.50;19.75;;;;;4.84;100.00;103619.69;5050674;28;11522;-69
2022/01/12 03:50:48;;;;;;;;;24.50;19.25;;;;;4.84;100.00;103612.50;5037084;28;11522;-69
2022/01/12 03:53:16;;;;;;;;;28.25;23.75;;;;;4.85;100.00;103616.06;5059946;28;11524;-70
2022/01/12 03:55:43;;;;;;;;;22.75;19.75;;;;;4.83;100.00;103616.13;5059808;28;11573;-69
2022/01/12 03:58:11;;;;;;;;;25.25;20.50;;;;;4.82;100.00;103614.41;5066281;28;11542;-69
2022/01/12 04:00:38;;;;;;;;;28.25;20.00;;;;;4.82;100.00;103610.84;5056056;28;12262;-69
2022/01/12 04:03:07;;;;;;;;;18.25;16.00;;;;;4.80;100.00;103602.88;5059178;28;11508;-69
2022/01/12 04:08:21;;;;;;;;;23.25;19.75;;;;;4.79;100.00;103590.44;5059633;28;12231;-69
2022/01/12 04:10:51;;;;;;;;;21.00;20.75;;;;;4.75;100.00;103594.22;5053641;28;13651;-69
2022/01/12 04:13:22;;;;;;;;;24.25;18.50;;;;;4.77;100.00;103589.66;5056480;28;11516;-69
2022/01/12 04:15:55;;;;;;;;;21.00;18.25;;;;;4.77;100.00;103596.81;5074105;28;11637;-69
2022/01/12 04:18:22;;;;;;;;;17.00;15.50;;;;;4.80;100.00;103612.75;5059181;28;11518;-69
2022/01/12 04:20:50;;;;;;;;;24.50;20.50;;;;;4.77;100.00;103616.47;5055373;28;11505;-69
2022/01/12 04:23:20;;;;;;;;;17.00;14.50;;;;;4.78;100.00;103620.03;5066994;28;11471;-70
2022/01/12 04:25:52;;;;;;;;;18.50;15.00;;;;;4.77;100.00;103618.28;5053317;28;11530;-69
2022/01/12 04:28:21;;;;;;;;;22.25;20.00;;;;;4.77;100.00;103620.97;5056631;28;11459;-69
2022/01/12 04:30:50;;;;;;;;;17.75;15.25;;;;;4.78;100.00;103631.63;5054634;28;11502;-69
2022/01/12 04:33:18;;;;;;;;;21.75;18.25;;;;;4.74;100.00;103624.69;5056039;28;11481;-69
2022/01/12 04:35:48;;;;;;;;;18.75;17.75;;;;;4.76;100.00;103625.47;5070911;28;11611;-69
2022/01/12 04:38:17;;;;;;;;;14.00;12.50;;;;;4.77;100.00;103613.78;5070916;28;11492;-70
2022/01/12 04:40:46;;;;;;;;;18.50;13.25;;;;;4.79;100.00;103608.34;5071732;28;11491;-69
2022/01/12 04:43:13;;;;;;;;;13.50;12.00;;;;;4.79;100.00;103606.53;5070910;28;11479;-69
2022/01/12 04:50:51;;;;;;;;;16.00;14.75;;;;;4.77;100.00;103613.78;5057900;28;11612;-70
2022/01/12 04:53:19;;;;;;;;;18.00;16.50;;;;;4.79;100.00;103619.94;5073405;28;11512;-69
2022/01/12 04:55:48;;;;;;;;;18.25;13.00;;;;;4.78;100.00;103614.66;5053519;28;11571;-70
2022/01/12 04:58:15;;;;;;;;;12.50;11.75;;;;;4.75;100.00;103615.69;5055304;28;11468;-69
2022/01/12 05:00:44;;;;;;;;;12.25;11.50;;;;;4.75;100.00;103628.25;5054136;28;11251;-70
2022/01/12 05:14:01;;;;;;;;;13.50;13.50;;;;;4.68;100.00;103648.28;5059717;28;11600;-70
2022/01/12 05:16:27;;;;;;;;;21.75;16.50;;;;;4.67;100.00;103659.97;5058351;28;11490;-70
2022/01/12 05:18:56;;;;;;;;;10.00;10.00;;;;;4.70;100.00;103654.44;5053418;28;11502;-69
2022/01/12 05:21:24;;;;;;;;;13.25;12.50;;;;;4.68;100.00;103650.97;5056345;28;12555;-69
2022/01/12 05:23:51;;;;;;;;;14.00;12.00;;;;;4.65;100.00;103643.94;5056561;28;11281;-69
2022/01/12 05:26:18;;;;;;;;;23.75;19.00;;;;;4.62;100.00;103650.34;5055813;28;11453;-70
2022/01/12 05:28:45;;;;;;;;;19.50;18.00;;;;;4.60;100.00;103660.31;5054065;28;12455;-69
2022/01/12 05:31:13;;;;;;;;;18.00;13.50;;;;;4.64;100.00;103655.63;5055903;28;11556;-69
2022/01/12 05:33:46;;;;;;;;;17.50;12.00;;;;;4.60;100.00;103648.69;5056352;28;11523;-69
2022/01/12 05:36:16;;;;;;;;;17.25;15.75;;;;;4.56;100.00;103652.50;5068909;28;11543;-70
2022/01/12 05:38:43;;;;;;;;;10.25;10.00;;;;;4.56;100.00;103652.50;5056707;28;11501;-69
2022/01/12 05:41:11;;;;;;;;;10.25;10.25;;;;;4.54;100.00;103657.94;5054814;28;11506;-70
2022/01/12 05:43:39;;;;;;;;;18.75;11.50;;;;;4.56;100.00;103655.19;5052444;28;11309;-70
2022/01/12 05:46:12;;;;;;;;;16.25;14.75;;;;;4.54;100.00;103655.25;5052427;28;11614;-70
2022/01/12 05:51:28;;;;;;;;;16.50;14.25;;;;;4.56;100.00;103665.91;5070538;28;11498;-70
2022/01/12 05:53:56;;;;;;;;;14.50;10.25;;;;;4.64;100.00;103669.91;5058435;28;12263;-69
2022/01/12 05:56:23;;;;;;;;;13.75;10.75;;;;;4.63;100.00;103672.69;5050194;28;11437;-69
2022/01/12 05:58:50;;;;;;;;;13.00;12.50;;;;;4.62;100.00;103669.13;5052387;28;11472;-69
2022/01/12 06:01:18;;;;;;;;;13.25;12.00;;;;;4.58;100.00;103672.94;5069542;28;11487;-69
2022/01/12 06:03:46;;;;;;;;;11.25;9.75;;;;;4.68;100.00;103684.03;5062927;28;11473;-69
2022/01/12 06:06:13;;;;;;;;;15.75;14.75;;;;;4.68;100.00;103692.09;5070224;28;11464;-70
2022/01/12 06:08:40;;;;;;;;;17.00;14.25;;;;;4.67;100.00;103697.53;5054419;28;11599;-70
2022/01/12 06:11:08;;;;;;;;;12.50;10.75;;;;;4.67;100.00;103702.91;5052431;28;11506;-69
2022/01/12 06:13:36;;;;;;;;;10.50;9.50;;;;;4.62;100.00;103695.09;5054045;28;11545;-69
2022/01/12 06:16:03;;;;;;;;;15.25;14.00;;;;;4.60;100.00;103703.22;5053852;28;11502;-70
2022/01/12 06:18:32;;;;;;;;;16.00;13.50;;;;;4.61;100.00;103710.34;5056221;28;11476;-70
2022/01/12 06:20:58;;;;;;;;;15.75;14.25;;;;;4.60;100.00;103708.59;5057433;28;11497;-70
2022/01/12 06:23:52;;;;;;;;;14.00;11.00;;;;;4.60;100.00;103699.69;5056995;28;11480;-69
2022/01/12 06:26:24;;;;;;;;;18.00;11.00;;;;;4.60;100.00;103710.41;5069351;28;11561;-70
2022/01/12 06:31:36;;;;;;;;;19.25;15.00;;;;;4.56;100.00;103704.34;5054694;28;11463;-70
2022/01/12 06:34:03;;;;;;;;;15.00;11.00;;;;;4.54;100.00;103711.59;5067203;28;11497;-70
2022/01/12 06:36:29;;;;;;;;;26.50;19.50;;;;;4.58;100.00;103713.19;5054935;28;11479;-70
2022/01/12 06:38:56;;;;;;;;;18.75;13.75;;;;;4.57;100.00;103714.13;5054090;28;11491;-70
2022/01/12 06:41:24;;;;;;;;;16.75;12.00;;;;;4.55;100.00;103724.06;5053386;28;11570;-70
2022/01/12 06:43:53;;;;;;;;;15.00;11.25;;;;;4.65;100.00;103729.81;5054093;28;11474;-70
2022/01/12 06:46:25;;;;;;;;;15.00;13.00;;;;;4.63;100.00;103732.59;5052237;28;11507;-69
2022/01/12 06:48:53;;;;;;;;;13.25;11.50;;;;;4.62;100.00;103738.91;5053327;28;11502;-69
2022/01/12 06:51:19;;;;;;;;;15.50;14.25;;;;;4.70;100.00;103746.53;5056286;28;11502;-70
2022/01/12 06:53:46;;;;;;;;;16.00;9.50;;;;;4.70;100.00;103756.41;5046178;28;11500;-70
2022/01/12 06:56:15;;;;;;;;;14.75;12.25;;;;;4.76;100.00;103762.34;5052107;28;11483;-69
2022/01/12 06:58:47;;;;;;;;;14.00;10.00;;;;;4.69;100.00;103755.53;5069956;28;11343;-70
2022/01/12 07:01:14;;;;;;;;;14.50;10.50;;;;;4.69;100.00;103766.28;5057007;28;11485;-70
2022/01/12 07:03:45;;;;;;;;;14.50;11.50;;;;;4.69;100.00;103768.97;5058430;28;11579;-70
2022/01/12 07:06:12;;;;;;;;;12.00;10.50;;;;;4.72;100.00;103778.69;5062711;28;11230;-70
2022/01/12 07:08:40;;;;;;;;;11.75;11.75;;;;;4.73;100.00;103761.66;5055991;28;11494;-69
2022/01/12 07:11:12;;;;;;;;;23.25;15.50;;;;;4.68;100.00;103766.34;5059652;28;11618;-70
2022/01/12 07:13:40;;;;;;;;;14.00;12.25;;;;;4.66;100.00;103771.81;5078310;28;11448;-70
2022/01/12 07:16:07;;;;;;;;;18.25;13.75;;;;;4.69;100.00;103774.31;5075080;28;11468;-70
2022/01/12 07:18:34;;;;;;;;;9.25;7.75;;;;;4.67;100.00;103775.34;5077055;28;11611;-71
2022/01/12 07:21:01;;;;;;;;;11.75;10.25;;;;;4.69;100.00;103776.13;5085063;28;11231;-70
2022/01/12 07:23:27;;;;;;;;;11.75;11.75;;;;;4.69;100.00;103778.81;5067948;28;12279;-71
2022/01/12 07:25:54;;;;;;;;;12.75;11.50;;;;;4.71;100.00;103782.28;5064026;28;11489;-70
2022/01/12 07:28:21;;;;;;;;;16.00;13.50;;;;;4.73;100.00;103778.63;5063155;28;11465;-70
2022/01/12 07:30:48;;;;;;;;;9.50;6.50;;;;;4.77;100.00;103788.25;5067965;28;11486;-71
2022/01/12 07:33:15;;;;;;;;;10.00;9.75;;;;;4.75;100.00;103790.13;5063812;28;11171;-70
2022/01/12 07:35:43;;;;;;;;;17.50;14.50;;;;;4.80;100.00;103789.91;5066603;28;11463;-71
2022/01/12 07:38:09;;;;;;;;;15.50;13.25;;;;;4.80;100.00;103788.06;5065781;28;11495;-70
2022/01/12 07:40:36;;;;;;;;;11.00;11.00;;;;;4.77;100.00;103790.94;5063289;28;11605;-70
2022/01/12 07:43:03;;;;;;;;;14.00;12.00;;;;;4.77;100.00;103792.75;5065274;28;11457;-71
2022/01/12 07:45:30;;;;;;;;;14.25;11.75;;;;;4.75;100.00;103790.13;5068805;28;11629;-70
2022/01/12 07:47:57;;;;;;;;;6.75;5.50;;;;;4.78;100.00;103789.97;5066542;28;11400;-70
2022/01/12 07:50:24;;;;;;;;;13.75;10.00;;;;;4.80;100.00;103789.91;5068738;28;11867;-70
2022/01/12 07:52:53;;;;;;;;;14.00;11.50;;;;;4.79;100.00;103798.91;5063646;28;11471;-71
2022/01/12 07:55:21;;;;;;;;;11.25;11.25;;;;;4.76;100.00;103805.28;5064766;28;11216;-71
2022/01/12 07:57:49;;;;;;;;;9.75;9.25;;;;;4.75;100.00;103811.59;5063731;28;11414;-71
2022/01/12 08:00:17;;;;;;;;;16.00;14.00;;;;;4.73;100.00;103818.00;5056358;28;11464;-71
2022/01/12 08:02:43;;;;;;;;;13.50;11.75;;;;;4.71;100.00;103812.72;5059434;28;11459;-70
2022/01/12 08:05:10;;;;;;;;;20.00;13.50;;;;;4.71;100.00;103812.72;5059887;28;12183;-71
2022/01/12 08:07:39;;;;;;;;;9.00;9.00;;;;;5.70;100.00;103810.16;5061145;28;11575;-70
2022/01/12 08:10:07;;;;;;;;;11.50;9.00;;;;;5.24;100.00;103823.34;5061660;28;11615;-70
2022/01/12 08:12:34;;;;;;;;;12.50;11.50;;;;;4.95;100.00;103822.16;5057548;28;11445;-70
2022/01/12 08:15:04;;;;;;;;;10.50;8.50;;;;;4.95;100.00;103829.34;5056908;28;11231;-70
2022/01/12 08:17:33;;;;;;;;;15.25;10.50;;;;;4.91;100.00;103833.16;5060849;28;12281;-70
2022/01/12 08:20:00;;;;;;;;;13.75;11.50;;;;;4.91;100.00;103833.16;5071197;28;11574;-71
2022/01/12 08:22:28;;;;;;;;;10.50;9.50;;;;;4.90;100.00;103834.97;5057725;28;11449;-70
2022/01/12 08:24:55;;;;;;;;;15.00;11.00;;;;;4.88;100.00;103833.31;5057282;28;11537;-71
2022/01/12 08:27:22;;;;;;;;;10.50;8.00;;;;;4.84;100.00;103847.84;5057535;28;11589;-70
2022/01/12 08:29:58;;;;;;;;;8.75;8.75;;;;;5.01;100.00;103855.91;5055444;28;11167;-69
2022/01/12 08:32:25;;;;;;;;;15.25;12.25;;;;;4.99;100.00;103865.00;5058155;28;11205;-70
2022/01/12 08:34:52;;;;;;;;;12.75;9.75;;;;;5.06;100.00;103859.22;5062727;28;11572;-71
2022/01/12 08:37:18;;;;;;;;;8.75;7.50;;;;;4.99;100.00;103868.53;5062106;28;11524;-70
2022/01/12 08:39:44;;;;;;;;;14.00;13.75;;;;;4.94;100.00;103860.69;5061409;28;11457;-69
2022/01/12 08:42:12;;;;;;;;;16.00;12.75;;;;;4.92;100.00;103861.72;5060908;28;11481;-69
2022/01/12 08:44:42;;;;;;;;;10.25;9.25;;;;;4.91;100.00;103858.16;5061572;28;11472;-70
2022/01/12 08:47:09;;;;;;;;;13.75;12.00;;;;;4.92;100.00;103867.09;5061475;28;11237;-69
2022/01/12 08:49:35;;;;;;;;;12.25;9.25;;;;;4.97;100.00;103869.56;5061432;28;11469;-69
2022/01/12 08:52:03;;;;;;;;;14.25;13.25;;;;;4.95;100.00;103875.00;5062598;28;11481;-70
2022/01/12 08:54:30;;;;;;;;;6.50;5.00;;;;;4.94;100.00;103879.50;5061029;28;11458;-70
2022/01/12 08:56:56;;;;;;;;;10.50;9.75;;;;;5.01;100.00;103885.44;5058362;28;11506;-69
2022/01/12 08:59:23;;;;;;;;;11.00;10.00;;;;;5.04;100.00;103879.91;5056809;28;11452;-72
2022/01/12 09:01:50;;;;;;;;;10.00;9.00;;;;;5.09;100.00;103880.53;5057385;28;11196;-71
2022/01/12 09:04:16;;;;;;;;;9.75;9.00;;;;;5.07;100.00;103886.94;5055361;28;11211;-71
2022/01/12 09:06:48;;;;;;;;;5.25;5.25;;;;;5.08;100.00;103888.69;5061553;28;11493;-71
2022/01/12 09:09:14;;;;;;;;;3.25;1.50;;;;;5.13;100.00;103886.63;5061290;28;11109;-71
2022/01/12 09:11:40;;;;;;;;;8.50;7.75;;;;;5.21;100.00;103887.13;5057556;28;11778;-70
2022/01/12 09:14:07;;;;;;;;;10.00;9.25;;;;;5.28;100.00;103895.72;5060371;28;11127;-70
2022/01/12 09:16:34;;;;;;;;;10.25;9.75;;;;;5.35;100.00;103897.13;5057973;28;11108;-70
2022/01/12 09:19:00;;;;;;;;;8.50;8.50;;;;;5.51;100.00;103892.69;5059859;28;11216;-71
2022/01/12 09:21:28;;;;;;;;;15.50;10.50;;;;;5.61;100.00;103895.75;5058176;28;11207;-71
2022/01/12 09:23:54;;;;;;;;;7.50;5.00;;;;;5.72;100.00;103904.13;5053240;28;11070;-71
2022/01/12 09:26:21;;;;;;;;;8.75;8.75;;;;;5.76;100.00;103906.56;5060563;28;11094;-71
2022/01/12 09:28:49;;;;;;;;;6.75;6.75;;;;;5.87;100.00;103908.66;5039982;28;11429;-71
2022/01/12 09:31:15;;;;;;;;;7.50;7.50;;;;;5.91;100.00;103910.25;5070978;28;13354;-71
2022/01/12 09:33:42;;;;;;;;;11.75;10.25;;;;;6.02;100.00;103918.63;5055557;28;10870;-71
2022/01/12 09:36:08;;;;;;;;;8.25;6.25;;;;;6.06;99.90;103922.03;5055696;28;11761;-71
2022/01/12 09:38:35;;;;;;;;;14.50;13.50;;;;;6.11;99.71;103922.63;5054672;28;11196;-71
2022/01/12 09:41:02;;;;;;;;;9.50;7.00;;;;;6.16;99.77;103926.81;5053282;28;11240;-71
2022/01/12 09:43:33;;;;;;;;;10.00;6.50;;;;;6.26;99.56;103923.63;5054848;28;11077;-70
2022/01/12 09:46:01;;;;;;;;;8.25;8.25;;;;;6.24;99.32;103921.03;5055636;28;10710;-72
2022/01/12 09:48:33;;;;;;;;;10.50;8.25;;;;;6.21;99.71;103931.09;5055663;28;10961;-71
2022/01/12 09:51:04;;;;;;;;;10.50;10.25;;;;;6.25;99.66;103941.59;5055900;28;11101;-71
2022/01/12 09:53:32;;;;;;;;;10.00;9.25;;;;;6.25;99.33;103952.34;5055916;28;11355;-71
2022/01/12 09:56:00;;;;;;;;;9.25;8.50;;;;;6.26;99.31;103953.22;5057211;28;11118;-71
2022/01/12 09:58:33;;;;;;;;;13.25;8.00;;;;;6.19;99.12;103949.97;5054528;28;11003;-71
2022/01/12 10:01:01;;;;;;;;;22.25;16.25;;;;;6.07;99.15;103951.53;5056241;28;11033;-71
2022/01/12 10:03:31;;;;;;;;;11.25;10.00;;;;;6.01;99.43;103942.94;5055465;28;11141;-70
2022/01/12 10:05:58;;;;;;;;;6.00;6.00;;;;;6.04;99.72;103938.25;5054118;28;11018;-73
2022/01/12 10:08:24;;;;;;;;;21.00;14.75;;;;;6.02;99.45;103942.84;5056495;28;11099;-71
2022/01/12 10:11:04;;;;;;;;;15.25;10.50;;;;;5.99;99.62;103937.63;5053350;28;11636;-71
2022/01/12 10:13:32;;;;;;;;;14.00;11.50;;;;;5.86;99.80;103934.69;5056046;28;10976;-71
2022/01/12 10:16:16;;;;;;;;;11.25;10.50;;;;;5.86;100.00;103939.19;5056549;28;11208;-72
2022/01/12 10:18:57;;;;;;;;;12.00;12.00;;;;;5.89;100.00;103941.72;5071090;28;11160;-70
2022/01/12 10:21:32;;;;;;;;;8.00;8.00;;;;;5.84;100.00;103941.09;5056795;28;11070;-70
2022/01/12 10:24:05;;;;;;;;;14.50;12.00;;;;;5.86;100.00;103944.56;5055063;28;11007;-71
2022/01/12 10:26:44;;;;;;;;;17.50;12.00;;;;;5.83;100.00;103948.28;5054625;28;10934;-70
2022/01/12 10:29:17;;;;;;;;;17.25;12.00;;;;;5.79;100.00;103952.09;5052608;28;11190;-70
2022/01/12 10:31:59;;;;;;;;;13.00;13.00;;;;;5.77;100.00;103943.25;5055041;28;11108;-71
2022/01/12 10:34:35;;;;;;;;;19.75;14.00;;;;;5.68;100.00;103943.72;5055696;28;11245;-71
2022/01/12 10:37:06;;;;;;;;;19.75;14.75;;;;;5.63;100.00;103961.91;5053532;28;11264;-72
2022/01/12 10:39:33;;;;;;;;;12.50;12.00;;;;;5.63;100.00;103961.91;5054107;28;11092;-71
2022/01/12 10:42:01;;;;;;;;;9.00;7.75;;;;;5.61;100.00;103971.00;5057998;28;11127;-71
2022/01/12 10:44:34;;;;;;;;;12.00;10.00;;;;;5.57;100.00;103976.53;5054544;28;11096;-71
2022/01/12 10:47:04;;;;;;;;;4.75;4.75;;;;;5.53;100.00;103969.59;5070468;28;10928;-71
2022/01/12 10:49:37;;;;;;;;;10.00;10.00;;;;;5.53;100.00;103963.34;5053821;28;10891;-72
2022/01/12 10:52:08;;;;;;;;;12.50;7.75;;;;;5.51;100.00;103947.31;5052911;28;11294;-72
2022/01/12 10:54:47;;;;;;;;;7.50;7.50;;;;;5.60;100.00;103943.25;5054154;28;10959;-72
2022/01/12 10:57:17;;;;;;;;;12.00;8.00;;;;;5.90;100.00;103948.88;5054070;28;11063;-70
2022/01/12 11:00:22;;;;;;;;;8.25;8.25;;;;;8.14;100.00;103951.03;5070128;28;10968;-69
2022/01/12 11:02:51;;;;;;;;;11.75;10.50;;;;;7.72;86.11;103940.13;5055819;28;11082;-72
2022/01/12 11:05:20;;;;;;;;;10.00;8.00;;;;;6.85;90.48;103935.50;5054183;28;11610;-72
2022/01/12 11:07:48;;;;;;;;;5.25;4.75;;;;;6.39;93.42;103932.72;5051261;28;10723;-71
2022/01/12 11:10:16;;;;;;;;;9.50;9.25;;;;;6.14;95.30;103939.47;5054715;28;10553;-71
2022/01/12 11:12:44;;;;;;;;;11.00;8.50;;;;;6.07;97.44;103932.69;5054899;28;10775;-71
2022/01/12 11:15:13;;;;;;;;;10.00;9.75;;;;;6.02;98.40;103924.00;5053224;28;10638;-71
2022/01/12 11:17:42;;;;;;;;;8.50;8.50;;;;;5.91;98.92;103918.34;5052187;28;10790;-71
2022/01/12 11:20:17;;;;;;;;;13.50;13.50;;;;;5.84;99.41;103927.66;5053407;28;11248;-72
2022/01/12 11:22:44;;;;;;;;;24.25;23.50;;;;;5.80;100.00;103929.66;5052389;28;10999;-71
2022/01/12 11:25:37;;;;;;;;;16.00;16.00;;;;;5.75;100.00;103925.47;5054310;28;11664;-73
2022/01/12 11:28:14;;;;;;;;;15.00;11.50;;;;;5.76;100.00;103921.84;5053938;28;11545;-70
2022/01/12 11:30:43;;;;;;;;;10.00;8.75;;;;;5.73;100.00;103919.31;5054617;28;11336;-70
2022/01/12 11:33:11;;;;;;;;;14.25;10.75;;;;;5.76;100.00;103920.00;5054859;28;11061;-71
2022/01/12 11:35:46;;;;;;;;;7.25;7.25;;;;;5.81;100.00;103915.25;5053618;28;11097;-71
2022/01/12 11:38:39;;;;;;;;;10.00;9.75;;;;;5.75;100.00;103910.22;5054304;28;10877;-71
2022/01/12 11:41:19;;;;;;;;;11.00;9.75;;;;;5.78;100.00;103911.88;5052932;28;11105;-71
2022/01/12 11:43:51;;;;;;;;;11.25;11.25;;;;;5.71;100.00;103916.72;5051774;28;10975;-71
2022/01/12 11:46:23;;;;;;;;;15.75;12.25;;;;;5.76;100.00;103920.00;5055332;28;11093;-72
2022/01/12 11:48:59;;;;;;;;;20.75;18.50;;;;;5.75;100.00;103918.28;5057221;28;11104;-71
2022/01/12 11:51:43;;;;;;;;;20.75;13.25;;;;;5.76;100.00;103922.69;5058424;28;11234;-72
2022/01/12 11:54:16;;;;;;;;;14.00;9.25;;;;;5.78;100.00;103920.78;5059365;28;11036;-71
2022/01/12 11:57:01;;;;;;;;;14.25;13.50;;;;;5.76;100.00;103911.06;5058953;28;11079;-71
2022/01/12 11:59:30;;;;;;;;;10.75;10.75;;;;;5.76;100.00;103922.69;5058357;28;11196;-71
2022/01/12 12:02:10;;;;;;;;;11.00;9.50;;;;;5.72;100.00;103909.50;5059862;28;11813;-70
2022/01/12 12:04:37;;;;;;;;;16.00;12.25;;;;;5.78;100.00;103909.19;5063741;28;10989;-71
2022/01/12 12:07:11;;;;;;;;;13.50;12.25;;;;;5.66;100.00;103912.50;5062507;28;11076;-71
2022/01/12 12:09:43;;;;;;;;;14.00;14.00;;;;;5.74;100.00;103899.53;5058494;28;11083;-71
2022/01/12 12:12:23;;;;;;;;;13.50;9.25;;;;;5.81;100.00;103890.19;5057766;28;11184;-71
2022/01/12 12:14:54;;;;;;;;;12.50;10.75;;;;;5.69;100.00;103886.31;5057575;28;11002;-71
2022/01/12 12:17:24;;;;;;;;;16.50;10.00;;;;;5.66;100.00;103881.13;5058775;28;11031;-72
2022/01/12 12:19:51;;;;;;;;;9.50;8.50;;;;;5.64;100.00;103882.16;5059623;28;11125;-72
2022/01/12 12:22:21;;;;;;;;;12.25;10.75;;;;;5.63;100.00;103875.91;5055961;28;11075;-72
2022/01/12 12:25:03;;;;;;;;;12.00;11.00;;;;;5.66;100.00;103867.69;5056959;28;11064;-71
2022/01/12 12:27:31;;;;;;;;;12.75;9.25;;;;;5.75;100.00;103880.63;5056140;28;11084;-71
2022/01/12 12:29:58;;;;;;;;;15.25;10.00;;;;;5.80;100.00;103880.38;5056804;28;11203;-71
2022/01/12 12:32:54;;;;;;;;;10.00;9.50;;;;;5.83;100.00;103883.78;5075114;28;11017;-71
2022/01/12 12:35:28;;;;;;;;;12.00;12.00;;;;;5.76;100.00;103885.06;5061054;28;10982;-71
2022/01/12 12:38:01;;;;;;;;;12.25;10.00;;;;;5.76;100.00;103898.50;5061740;28;11055;-71
2022/01/12 12:40:35;;;;;;;;;11.25;11.00;;;;;5.77;100.00;103913.69;5062038;28;11091;-70
2022/01/12 12:43:17;;;;;;;;;16.25;14.25;;;;;5.80;100.00;103910.81;5062865;28;11142;-71